sensor_id;sensor_type;location;lat;lon;timestamp;P1;durP1;ratioP1;P2;durP2;ratioP2
3261;SDS011;1643;47.746;9.000;2023-04-03T00:01:11;3.50;;;3.20;;
3261;SDS011;1643;47.746;9.000;2023-04-03T00:03:37;3.30;;;3.00;;
3261;SDS011;1643;47.746;9.000;2023-04-03T00:06:04;4.20;;;3.80;;
3261;SDS011;1643;47.746;9.000;2023-04-03T00:08:31;4.27;;;2.90;;
3261;SDS011;1643;47.746;9.000;2023-04-03T00:10:58;3.77;;;3.40;;
3261;SDS011;1643;47.746;9.000;2023-04-03T00:13:24;3.80;;;3.23;;
3261;SDS011;1643;47.746;9.000;2023-04-03T00:15:50;4.93;;;3.77;;
3261;SDS011;1643;47.746;9.000;2023-04-03T00:18:17;3.40;;;3.10;;
3261;SDS011;1643;47.746;9.000;2023-04-03T00:20:44;6.07;;;4.53;;
3261;SDS011;1643;47.746;9.000;2023-04-03T00:23:10;3.10;;;2.80;;
3261;SDS011;1643;47.746;9.000;2023-04-03T00:25:36;4.00;;;3.60;;
3261;SDS011;1643;47.746;9.000;2023-04-03T00:28:02;5.07;;;4.07;;
3261;SDS011;1643;47.746;9.000;2023-04-03T00:30:28;3.60;;;3.30;;
3261;SDS011;1643;47.746;9.000;2023-04-03T00:32:54;3.40;;;3.10;;
3261;SDS011;1643;47.746;9.000;2023-04-03T00:35:21;4.50;;;3.83;;
3261;SDS011;1643;47.746;9.000;2023-04-03T00:37:47;3.83;;;3.53;;
3261;SDS011;1643;47.746;9.000;2023-04-03T00:40:14;3.20;;;3.00;;
3261;SDS011;1643;47.746;9.000;2023-04-03T00:42:41;4.07;;;3.70;;
3261;SDS011;1643;47.746;9.000;2023-04-03T00:47:37;3.00;;;2.80;;
3261;SDS011;1643;47.746;9.000;2023-04-03T00:50:04;3.53;;;3.23;;
3261;SDS011;1643;47.746;9.000;2023-04-03T00:52:30;3.17;;;2.97;;
3261;SDS011;1643;47.746;9.000;2023-04-03T00:54:57;4.03;;;3.30;;
3261;SDS011;1643;47.746;9.000;2023-04-03T00:57:26;4.33;;;3.93;;
3261;SDS011;1643;47.746;9.000;2023-04-03T00:59:54;4.53;;;3.70;;
3261;SDS011;1643;47.746;9.000;2023-04-03T01:02:21;4.00;;;3.60;;
3261;SDS011;1643;47.746;9.000;2023-04-03T01:04:47;3.60;;;3.30;;
3261;SDS011;1643;47.746;9.000;2023-04-03T01:07:20;3.70;;;3.40;;
3261;SDS011;1643;47.746;9.000;2023-04-03T01:09:48;4.43;;;4.07;;
3261;SDS011;1643;47.746;9.000;2023-04-03T01:14:44;3.67;;;3.33;;
3261;SDS011;1643;47.746;9.000;2023-04-03T01:17:27;4.03;;;3.63;;
3261;SDS011;1643;47.746;9.000;2023-04-03T01:22:41;3.67;;;3.33;;
3261;SDS011;1643;47.746;9.000;2023-04-03T01:25:09;3.60;;;3.30;;
3261;SDS011;1643;47.746;9.000;2023-04-03T01:27:35;7.70;;;3.57;;
3261;SDS011;1643;47.746;9.000;2023-04-03T01:30:01;3.83;;;3.53;;
3261;SDS011;1643;47.746;9.000;2023-04-03T01:32:27;3.53;;;3.23;;
3261;SDS011;1643;47.746;9.000;2023-04-03T01:34:53;2.83;;;2.63;;
3261;SDS011;1643;47.746;9.000;2023-04-03T01:37:19;4.63;;;3.40;;
3261;SDS011;1643;47.746;9.000;2023-04-03T01:39:45;3.40;;;3.10;;
3261;SDS011;1643;47.746;9.000;2023-04-03T01:42:11;4.23;;;3.20;;
3261;SDS011;1643;47.746;9.000;2023-04-03T01:44:37;3.77;;;3.47;;
3261;SDS011;1643;47.746;9.000;2023-04-03T01:47:05;4.10;;;3.70;;
3261;SDS011;1643;47.746;9.000;2023-04-03T01:49:32;3.30;;;3.00;;
3261;SDS011;1643;47.746;9.000;2023-04-03T01:51:58;3.20;;;3.00;;
3261;SDS011;1643;47.746;9.000;2023-04-03T01:54:24;3.47;;;3.17;;
3261;SDS011;1643;47.746;9.000;2023-04-03T01:56:50;3.47;;;3.17;;
3261;SDS011;1643;47.746;9.000;2023-04-03T01:59:16;3.63;;;3.33;;
3261;SDS011;1643;47.746;9.000;2023-04-03T02:01:43;3.50;;;3.20;;
3261;SDS011;1643;47.746;9.000;2023-04-03T02:04:10;3.50;;;3.20;;
3261;SDS011;1643;47.746;9.000;2023-04-03T02:06:36;5.70;;;3.40;;
3261;SDS011;1643;47.746;9.000;2023-04-03T02:09:02;4.13;;;3.50;;
3261;SDS011;1643;47.746;9.000;2023-04-03T02:11:29;3.77;;;3.47;;
3261;SDS011;1643;47.746;9.000;2023-04-03T02:13:55;3.40;;;3.20;;
3261;SDS011;1643;47.746;9.000;2023-04-03T02:16:21;3.57;;;3.27;;
3261;SDS011;1643;47.746;9.000;2023-04-03T02:18:47;3.83;;;3.53;;
3261;SDS011;1643;47.746;9.000;2023-04-03T02:21:12;3.43;;;3.13;;
3261;SDS011;1643;47.746;9.000;2023-04-03T02:23:39;3.70;;;3.30;;
3261;SDS011;1643;47.746;9.000;2023-04-03T02:26:10;3.43;;;3.13;;
3261;SDS011;1643;47.746;9.000;2023-04-03T02:28:36;3.60;;;3.40;;
3261;SDS011;1643;47.746;9.000;2023-04-03T02:31:02;3.73;;;3.43;;
3261;SDS011;1643;47.746;9.000;2023-04-03T02:33:28;3.60;;;3.30;;
3261;SDS011;1643;47.746;9.000;2023-04-03T02:35:55;3.90;;;3.60;;
3261;SDS011;1643;47.746;9.000;2023-04-03T02:38:22;4.03;;;3.67;;
3261;SDS011;1643;47.746;9.000;2023-04-03T02:40:48;3.50;;;3.20;;
3261;SDS011;1643;47.746;9.000;2023-04-03T02:43:14;4.30;;;3.97;;
3261;SDS011;1643;47.746;9.000;2023-04-03T02:45:40;4.10;;;3.77;;
3261;SDS011;1643;47.746;9.000;2023-04-03T02:48:06;3.63;;;3.37;;
3261;SDS011;1643;47.746;9.000;2023-04-03T02:50:32;3.80;;;3.40;;
3261;SDS011;1643;47.746;9.000;2023-04-03T02:52:58;4.07;;;3.67;;
3261;SDS011;1643;47.746;9.000;2023-04-03T02:55:24;4.17;;;3.80;;
3261;SDS011;1643;47.746;9.000;2023-04-03T02:57:51;3.93;;;3.00;;
3261;SDS011;1643;47.746;9.000;2023-04-03T03:00:17;3.20;;;3.00;;
3261;SDS011;1643;47.746;9.000;2023-04-03T03:02:43;4.07;;;3.60;;
3261;SDS011;1643;47.746;9.000;2023-04-03T03:05:09;3.77;;;3.47;;
3261;SDS011;1643;47.746;9.000;2023-04-03T03:07:35;4.93;;;3.50;;
3261;SDS011;1643;47.746;9.000;2023-04-03T03:10:01;4.80;;;4.10;;
3261;SDS011;1643;47.746;9.000;2023-04-03T03:12:27;3.97;;;3.57;;
3261;SDS011;1643;47.746;9.000;2023-04-03T03:14:53;4.43;;;4.03;;
3261;SDS011;1643;47.746;9.000;2023-04-03T03:17:18;4.90;;;4.50;;
3261;SDS011;1643;47.746;9.000;2023-04-03T03:19:44;5.17;;;4.67;;
3261;SDS011;1643;47.746;9.000;2023-04-03T03:22:11;4.13;;;3.77;;
3261;SDS011;1643;47.746;9.000;2023-04-03T03:24:37;4.87;;;4.43;;
3261;SDS011;1643;47.746;9.000;2023-04-03T03:27:03;4.77;;;4.37;;
3261;SDS011;1643;47.746;9.000;2023-04-03T03:29:29;5.30;;;4.53;;
3261;SDS011;1643;47.746;9.000;2023-04-03T03:31:55;3.77;;;3.47;;
3261;SDS011;1643;47.746;9.000;2023-04-03T03:34:21;4.00;;;3.70;;
3261;SDS011;1643;47.746;9.000;2023-04-03T03:36:47;3.90;;;3.60;;
3261;SDS011;1643;47.746;9.000;2023-04-03T03:39:13;3.87;;;3.57;;
3261;SDS011;1643;47.746;9.000;2023-04-03T03:41:39;3.87;;;3.43;;
3261;SDS011;1643;47.746;9.000;2023-04-03T03:44:05;4.03;;;3.60;;
3261;SDS011;1643;47.746;9.000;2023-04-03T03:46:31;4.30;;;3.90;;
3261;SDS011;1643;47.746;9.000;2023-04-03T03:48:57;3.57;;;3.27;;
3261;SDS011;1643;47.746;9.000;2023-04-03T03:51:24;4.30;;;3.90;;
3261;SDS011;1643;47.746;9.000;2023-04-03T03:53:50;4.50;;;3.97;;
3261;SDS011;1643;47.746;9.000;2023-04-03T03:56:16;5.03;;;3.97;;
3261;SDS011;1643;47.746;9.000;2023-04-03T03:58:42;4.23;;;3.67;;
3261;SDS011;1643;47.746;9.000;2023-04-03T04:01:08;3.70;;;3.40;;
3261;SDS011;1643;47.746;9.000;2023-04-03T04:03:34;3.80;;;3.43;;
3261;SDS011;1643;47.746;9.000;2023-04-03T04:06:00;3.40;;;3.10;;
3261;SDS011;1643;47.746;9.000;2023-04-03T04:08:26;5.33;;;3.00;;
3261;SDS011;1643;47.746;9.000;2023-04-03T04:10:52;2.87;;;2.67;;
3261;SDS011;1643;47.746;9.000;2023-04-03T04:13:17;2.90;;;2.70;;
3261;SDS011;1643;47.746;9.000;2023-04-03T04:15:43;3.07;;;2.73;;
3261;SDS011;1643;47.746;9.000;2023-04-03T04:18:09;3.00;;;2.70;;
3261;SDS011;1643;47.746;9.000;2023-04-03T04:20:35;2.90;;;2.70;;
3261;SDS011;1643;47.746;9.000;2023-04-03T04:23:01;2.80;;;2.60;;
3261;SDS011;1643;47.746;9.000;2023-04-03T04:25:27;3.30;;;3.00;;
3261;SDS011;1643;47.746;9.000;2023-04-03T04:27:53;3.30;;;3.00;;
3261;SDS011;1643;47.746;9.000;2023-04-03T04:30:19;3.30;;;2.90;;
3261;SDS011;1643;47.746;9.000;2023-04-03T04:32:45;3.17;;;2.87;;
3261;SDS011;1643;47.746;9.000;2023-04-03T04:35:12;2.57;;;2.37;;
3261;SDS011;1643;47.746;9.000;2023-04-03T04:37:38;3.37;;;2.60;;
3261;SDS011;1643;47.746;9.000;2023-04-03T04:40:04;2.80;;;2.57;;
3261;SDS011;1643;47.746;9.000;2023-04-03T04:42:30;2.50;;;2.30;;
3261;SDS011;1643;47.746;9.000;2023-04-03T04:44:56;3.10;;;2.50;;
3261;SDS011;1643;47.746;9.000;2023-04-03T04:47:22;3.17;;;2.87;;
3261;SDS011;1643;47.746;9.000;2023-04-03T04:49:48;3.37;;;2.57;;
3261;SDS011;1643;47.746;9.000;2023-04-03T04:52:15;2.70;;;2.50;;
3261;SDS011;1643;47.746;9.000;2023-04-03T04:54:41;2.70;;;2.50;;
3261;SDS011;1643;47.746;9.000;2023-04-03T04:57:07;3.20;;;2.93;;
3261;SDS011;1643;47.746;9.000;2023-04-03T04:59:33;3.23;;;3.03;;
3261;SDS011;1643;47.746;9.000;2023-04-03T05:01:59;2.60;;;2.40;;
3261;SDS011;1643;47.746;9.000;2023-04-03T05:04:25;3.77;;;3.30;;
3261;SDS011;1643;47.746;9.000;2023-04-03T05:06:51;2.60;;;2.40;;
3261;SDS011;1643;47.746;9.000;2023-04-03T05:09:17;5.67;;;4.37;;
3261;SDS011;1643;47.746;9.000;2023-04-03T05:11:45;4.10;;;3.70;;
3261;SDS011;1643;47.746;9.000;2023-04-03T05:14:11;8.90;;;3.47;;
3261;SDS011;1643;47.746;9.000;2023-04-03T05:16:37;2.83;;;2.53;;
3261;SDS011;1643;47.746;9.000;2023-04-03T05:19:03;3.00;;;2.70;;
3261;SDS011;1643;47.746;9.000;2023-04-03T05:21:29;2.97;;;2.67;;
3261;SDS011;1643;47.746;9.000;2023-04-03T05:23:58;3.10;;;2.80;;
3261;SDS011;1643;47.746;9.000;2023-04-03T05:26:24;2.87;;;2.57;;
3261;SDS011;1643;47.746;9.000;2023-04-03T05:28:51;2.13;;;2.00;;
3261;SDS011;1643;47.746;9.000;2023-04-03T05:31:17;3.50;;;2.30;;
3261;SDS011;1643;47.746;9.000;2023-04-03T05:33:43;2.53;;;2.33;;
3261;SDS011;1643;47.746;9.000;2023-04-03T05:36:09;2.63;;;2.43;;
3261;SDS011;1643;47.746;9.000;2023-04-03T05:38:35;2.50;;;2.30;;
3261;SDS011;1643;47.746;9.000;2023-04-03T05:41:01;2.73;;;2.50;;
3261;SDS011;1643;47.746;9.000;2023-04-03T05:43:27;2.43;;;2.23;;
3261;SDS011;1643;47.746;9.000;2023-04-03T05:45:53;2.50;;;2.30;;
3261;SDS011;1643;47.746;9.000;2023-04-03T05:48:19;3.03;;;2.60;;
3261;SDS011;1643;47.746;9.000;2023-04-03T05:50:46;2.10;;;2.00;;
3261;SDS011;1643;47.746;9.000;2023-04-03T05:53:19;2.23;;;2.10;;
3261;SDS011;1643;47.746;9.000;2023-04-03T05:55:46;2.27;;;2.07;;
3261;SDS011;1643;47.746;9.000;2023-04-03T05:58:12;1.73;;;1.63;;
3261;SDS011;1643;47.746;9.000;2023-04-03T06:00:38;2.30;;;2.10;;
3261;SDS011;1643;47.746;9.000;2023-04-03T06:03:05;3.47;;;3.17;;
3261;SDS011;1643;47.746;9.000;2023-04-03T06:05:31;3.00;;;2.80;;
3261;SDS011;1643;47.746;9.000;2023-04-03T06:07:57;8.77;;;5.07;;
3261;SDS011;1643;47.746;9.000;2023-04-03T06:10:23;23.27;;;13.00;;
3261;SDS011;1643;47.746;9.000;2023-04-03T06:12:49;10.13;;;6.73;;
3261;SDS011;1643;47.746;9.000;2023-04-03T06:15:16;10.47;;;7.93;;
3261;SDS011;1643;47.746;9.000;2023-04-03T06:17:42;8.40;;;7.60;;
3261;SDS011;1643;47.746;9.000;2023-04-03T06:20:09;5.07;;;4.57;;
3261;SDS011;1643;47.746;9.000;2023-04-03T06:22:35;3.17;;;2.87;;
3261;SDS011;1643;47.746;9.000;2023-04-03T06:25:01;2.40;;;2.20;;
3261;SDS011;1643;47.746;9.000;2023-04-03T06:27:27;2.60;;;2.30;;
3261;SDS011;1643;47.746;9.000;2023-04-03T06:29:53;2.40;;;2.20;;
3261;SDS011;1643;47.746;9.000;2023-04-03T06:32:19;3.27;;;2.97;;
3261;SDS011;1643;47.746;9.000;2023-04-03T06:34:45;3.37;;;3.00;;
3261;SDS011;1643;47.746;9.000;2023-04-03T06:37:15;11.93;;;6.87;;
3261;SDS011;1643;47.746;9.000;2023-04-03T06:39:41;13.87;;;8.60;;
3261;SDS011;1643;47.746;9.000;2023-04-03T06:42:07;10.50;;;6.33;;
3261;SDS011;1643;47.746;9.000;2023-04-03T06:44:33;6.43;;;4.03;;
3261;SDS011;1643;47.746;9.000;2023-04-03T06:46:59;4.77;;;4.07;;
3261;SDS011;1643;47.746;9.000;2023-04-03T06:49:25;4.27;;;3.67;;
3261;SDS011;1643;47.746;9.000;2023-04-03T06:51:51;2.87;;;2.50;;
3261;SDS011;1643;47.746;9.000;2023-04-03T06:54:17;2.40;;;2.20;;
3261;SDS011;1643;47.746;9.000;2023-04-03T06:56:43;2.40;;;2.10;;
3261;SDS011;1643;47.746;9.000;2023-04-03T06:59:10;2.53;;;2.43;;
3261;SDS011;1643;47.746;9.000;2023-04-03T07:01:40;3.63;;;3.33;;
3261;SDS011;1643;47.746;9.000;2023-04-03T07:04:07;3.57;;;2.80;;
3261;SDS011;1643;47.746;9.000;2023-04-03T07:06:33;4.80;;;2.90;;
3261;SDS011;1643;47.746;9.000;2023-04-03T07:09:00;2.93;;;2.70;;
3261;SDS011;1643;47.746;9.000;2023-04-03T07:11:26;2.70;;;2.50;;
3261;SDS011;1643;47.746;9.000;2023-04-03T07:13:52;2.60;;;2.40;;
3261;SDS011;1643;47.746;9.000;2023-04-03T07:16:18;2.77;;;2.57;;
3261;SDS011;1643;47.746;9.000;2023-04-03T07:18:45;2.70;;;2.50;;
3261;SDS011;1643;47.746;9.000;2023-04-03T07:21:11;3.07;;;2.77;;
3261;SDS011;1643;47.746;9.000;2023-04-03T07:23:38;5.67;;;3.30;;
3261;SDS011;1643;47.746;9.000;2023-04-03T07:26:04;3.43;;;2.97;;
3261;SDS011;1643;47.746;9.000;2023-04-03T07:28:31;2.80;;;2.60;;
3261;SDS011;1643;47.746;9.000;2023-04-03T07:33:26;7.40;;;4.40;;
3261;SDS011;1643;47.746;9.000;2023-04-03T07:35:52;4.63;;;3.50;;
3261;SDS011;1643;47.746;9.000;2023-04-03T07:38:18;4.60;;;3.20;;
3261;SDS011;1643;47.746;9.000;2023-04-03T07:40:48;3.07;;;2.67;;
3261;SDS011;1643;47.746;9.000;2023-04-03T07:43:14;3.20;;;2.90;;
3261;SDS011;1643;47.746;9.000;2023-04-03T07:45:41;2.40;;;2.20;;
3261;SDS011;1643;47.746;9.000;2023-04-03T07:48:08;2.87;;;2.40;;
3261;SDS011;1643;47.746;9.000;2023-04-03T07:50:34;3.63;;;2.60;;
3261;SDS011;1643;47.746;9.000;2023-04-03T07:53:01;3.83;;;3.23;;
3261;SDS011;1643;47.746;9.000;2023-04-03T07:55:27;3.10;;;2.90;;
3261;SDS011;1643;47.746;9.000;2023-04-03T07:57:54;3.67;;;2.57;;
3261;SDS011;1643;47.746;9.000;2023-04-03T08:00:20;3.53;;;3.23;;
3261;SDS011;1643;47.746;9.000;2023-04-03T08:02:46;2.87;;;2.67;;
3261;SDS011;1643;47.746;9.000;2023-04-03T08:05:19;4.10;;;2.63;;
3261;SDS011;1643;47.746;9.000;2023-04-03T08:07:46;2.50;;;2.30;;
3261;SDS011;1643;47.746;9.000;2023-04-03T08:10:12;2.47;;;2.27;;
3261;SDS011;1643;47.746;9.000;2023-04-03T08:12:38;2.67;;;2.47;;
3261;SDS011;1643;47.746;9.000;2023-04-03T08:15:04;2.73;;;2.27;;
3261;SDS011;1643;47.746;9.000;2023-04-03T08:17:30;10.17;;;6.47;;
3261;SDS011;1643;47.746;9.000;2023-04-03T08:19:56;5.17;;;3.63;;
3261;SDS011;1643;47.746;9.000;2023-04-03T08:22:21;3.50;;;3.07;;
3261;SDS011;1643;47.746;9.000;2023-04-03T08:24:47;6.63;;;4.23;;
3261;SDS011;1643;47.746;9.000;2023-04-03T08:27:12;8.67;;;5.60;;
3261;SDS011;1643;47.746;9.000;2023-04-03T08:29:38;14.00;;;9.03;;
3261;SDS011;1643;47.746;9.000;2023-04-03T08:32:04;5.97;;;5.37;;
3261;SDS011;1643;47.746;9.000;2023-04-03T08:34:31;3.43;;;3.13;;
3261;SDS011;1643;47.746;9.000;2023-04-03T08:36:59;3.60;;;3.10;;
3261;SDS011;1643;47.746;9.000;2023-04-03T08:39:28;2.57;;;2.37;;
3261;SDS011;1643;47.746;9.000;2023-04-03T08:41:55;2.67;;;2.47;;
3261;SDS011;1643;47.746;9.000;2023-04-03T08:49:41;3.23;;;2.50;;
3261;SDS011;1643;47.746;9.000;2023-04-03T08:52:14;6.07;;;3.27;;
3261;SDS011;1643;47.746;9.000;2023-04-03T08:57:17;5.50;;;3.10;;
3261;SDS011;1643;47.746;9.000;2023-04-03T08:59:49;3.30;;;3.00;;
3261;SDS011;1643;47.746;9.000;2023-04-03T09:02:29;2.63;;;2.27;;
3261;SDS011;1643;47.746;9.000;2023-04-03T09:04:59;2.77;;;2.37;;
3261;SDS011;1643;47.746;9.000;2023-04-03T09:10:37;3.07;;;2.70;;
3261;SDS011;1643;47.746;9.000;2023-04-03T09:15:33;2.50;;;2.30;;
3261;SDS011;1643;47.746;9.000;2023-04-03T09:23:03;3.17;;;2.63;;
3261;SDS011;1643;47.746;9.000;2023-04-03T09:25:40;2.67;;;2.43;;
3261;SDS011;1643;47.746;9.000;2023-04-03T09:28:07;3.90;;;2.67;;
3261;SDS011;1643;47.746;9.000;2023-04-03T09:30:35;2.37;;;2.17;;
3261;SDS011;1643;47.746;9.000;2023-04-03T09:33:02;2.60;;;2.40;;
3261;SDS011;1643;47.746;9.000;2023-04-03T09:35:29;2.47;;;2.27;;
3261;SDS011;1643;47.746;9.000;2023-04-03T09:37:58;3.20;;;2.30;;
3261;SDS011;1643;47.746;9.000;2023-04-03T09:42:54;2.17;;;1.97;;
3261;SDS011;1643;47.746;9.000;2023-04-03T09:45:26;3.30;;;2.13;;
3261;SDS011;1643;47.746;9.000;2023-04-03T09:58:40;2.20;;;2.10;;
3261;SDS011;1643;47.746;9.000;2023-04-03T10:01:27;2.80;;;2.50;;
3261;SDS011;1643;47.746;9.000;2023-04-03T10:06:42;3.03;;;2.70;;
3261;SDS011;1643;47.746;9.000;2023-04-03T10:11:58;2.53;;;2.10;;
3261;SDS011;1643;47.746;9.000;2023-04-03T10:14:26;3.20;;;2.30;;
3261;SDS011;1643;47.746;9.000;2023-04-03T10:23:00;3.70;;;3.10;;
3261;SDS011;1643;47.746;9.000;2023-04-03T10:25:45;3.67;;;3.30;;
3261;SDS011;1643;47.746;9.000;2023-04-03T10:33:49;2.23;;;2.03;;
3261;SDS011;1643;47.746;9.000;2023-04-03T10:47:46;3.20;;;2.90;;
3261;SDS011;1643;47.746;9.000;2023-04-03T10:53:24;2.53;;;2.33;;
3261;SDS011;1643;47.746;9.000;2023-04-03T10:58:57;2.33;;;2.20;;
3261;SDS011;1643;47.746;9.000;2023-04-03T11:01:24;3.83;;;3.00;;
3261;SDS011;1643;47.746;9.000;2023-04-03T11:03:57;3.00;;;2.57;;
3261;SDS011;1643;47.746;9.000;2023-04-03T11:06:24;3.60;;;2.80;;
3261;SDS011;1643;47.746;9.000;2023-04-03T11:11:25;2.30;;;2.07;;
3261;SDS011;1643;47.746;9.000;2023-04-03T11:13:56;3.00;;;2.80;;
3261;SDS011;1643;47.746;9.000;2023-04-03T11:16:28;2.57;;;2.37;;
3261;SDS011;1643;47.746;9.000;2023-04-03T11:18:59;2.73;;;2.53;;
3261;SDS011;1643;47.746;9.000;2023-04-03T11:21:43;3.73;;;3.10;;
3261;SDS011;1643;47.746;9.000;2023-04-03T11:24:24;3.10;;;2.80;;
3261;SDS011;1643;47.746;9.000;2023-04-03T11:26:52;3.47;;;2.40;;
3261;SDS011;1643;47.746;9.000;2023-04-03T11:29:20;2.60;;;2.40;;
3261;SDS011;1643;47.746;9.000;2023-04-03T11:34:33;2.77;;;2.57;;
3261;SDS011;1643;47.746;9.000;2023-04-03T11:37:29;2.93;;;2.70;;
3261;SDS011;1643;47.746;9.000;2023-04-03T11:40:13;2.60;;;2.20;;
3261;SDS011;1643;47.746;9.000;2023-04-03T11:42:49;3.03;;;2.77;;
3261;SDS011;1643;47.746;9.000;2023-04-03T11:47:55;3.10;;;2.80;;
3261;SDS011;1643;47.746;9.000;2023-04-03T12:13:40;2.30;;;2.10;;
3261;SDS011;1643;47.746;9.000;2023-04-03T12:19:04;2.33;;;2.13;;
3261;SDS011;1643;47.746;9.000;2023-04-03T12:24:25;2.30;;;2.10;;
3261;SDS011;1643;47.746;9.000;2023-04-03T12:29:59;2.50;;;2.30;;
3261;SDS011;1643;47.746;9.000;2023-04-03T12:35:30;2.17;;;2.00;;
3261;SDS011;1643;47.746;9.000;2023-04-03T12:38:22;3.30;;;2.60;;
3261;SDS011;1643;47.746;9.000;2023-04-03T12:40:52;4.03;;;2.30;;
3261;SDS011;1643;47.746;9.000;2023-04-03T12:46:07;2.67;;;2.20;;
3261;SDS011;1643;47.746;9.000;2023-04-03T12:54:00;2.60;;;2.10;;
3261;SDS011;1643;47.746;9.000;2023-04-03T12:56:29;1.83;;;1.73;;
3261;SDS011;1643;47.746;9.000;2023-04-03T12:59:12;2.40;;;2.20;;
3261;SDS011;1643;47.746;9.000;2023-04-03T13:01:38;3.07;;;2.30;;
3261;SDS011;1643;47.746;9.000;2023-04-03T13:04:04;2.27;;;2.10;;
3261;SDS011;1643;47.746;9.000;2023-04-03T13:06:32;1.77;;;1.67;;
3261;SDS011;1643;47.746;9.000;2023-04-03T13:09:04;2.40;;;2.20;;
3261;SDS011;1643;47.746;9.000;2023-04-03T13:11:43;2.77;;;1.77;;
3261;SDS011;1643;47.746;9.000;2023-04-03T13:14:17;1.90;;;1.73;;
3261;SDS011;1643;47.746;9.000;2023-04-03T13:19:24;1.90;;;1.80;;
3261;SDS011;1643;47.746;9.000;2023-04-03T13:21:57;2.10;;;1.90;;
3261;SDS011;1643;47.746;9.000;2023-04-03T13:24:28;2.53;;;2.30;;
3261;SDS011;1643;47.746;9.000;2023-04-03T13:26:56;2.80;;;2.60;;
3261;SDS011;1643;47.746;9.000;2023-04-03T13:29:24;2.33;;;2.00;;
3261;SDS011;1643;47.746;9.000;2023-04-03T13:31:55;3.10;;;2.70;;
3261;SDS011;1643;47.746;9.000;2023-04-03T13:34:23;3.00;;;2.20;;
3261;SDS011;1643;47.746;9.000;2023-04-03T13:41:54;2.17;;;1.90;;
3261;SDS011;1643;47.746;9.000;2023-04-03T13:47:21;2.97;;;2.37;;
3261;SDS011;1643;47.746;9.000;2023-04-03T13:49:46;2.63;;;2.43;;
3261;SDS011;1643;47.746;9.000;2023-04-03T13:54:57;3.20;;;1.97;;
3261;SDS011;1643;47.746;9.000;2023-04-03T13:57:25;2.43;;;2.03;;
3261;SDS011;1643;47.746;9.000;2023-04-03T13:59:52;2.60;;;2.37;;
3261;SDS011;1643;47.746;9.000;2023-04-03T14:02:19;2.60;;;2.40;;
3261;SDS011;1643;47.746;9.000;2023-04-03T14:04:55;2.70;;;2.30;;
3261;SDS011;1643;47.746;9.000;2023-04-03T14:07:25;3.10;;;2.50;;
3261;SDS011;1643;47.746;9.000;2023-04-03T14:09:51;4.33;;;2.60;;
3261;SDS011;1643;47.746;9.000;2023-04-03T14:12:28;3.03;;;2.50;;
3261;SDS011;1643;47.746;9.000;2023-04-03T14:15:01;2.17;;;2.07;;
3261;SDS011;1643;47.746;9.000;2023-04-03T14:17:29;2.60;;;2.40;;
3261;SDS011;1643;47.746;9.000;2023-04-03T14:19:56;1.93;;;1.83;;
3261;SDS011;1643;47.746;9.000;2023-04-03T14:22:30;2.90;;;2.47;;
3261;SDS011;1643;47.746;9.000;2023-04-03T14:24:57;2.47;;;2.27;;
3261;SDS011;1643;47.746;9.000;2023-04-03T14:30:02;3.97;;;2.47;;
3261;SDS011;1643;47.746;9.000;2023-04-03T14:32:31;4.40;;;1.90;;
3261;SDS011;1643;47.746;9.000;2023-04-03T14:34:57;2.23;;;2.07;;
3261;SDS011;1643;47.746;9.000;2023-04-03T14:37:24;1.93;;;1.83;;
3261;SDS011;1643;47.746;9.000;2023-04-03T14:39:53;3.30;;;1.93;;
3261;SDS011;1643;47.746;9.000;2023-04-03T14:42:21;3.80;;;1.97;;
3261;SDS011;1643;47.746;9.000;2023-04-03T14:44:48;2.43;;;2.23;;
3261;SDS011;1643;47.746;9.000;2023-04-03T14:47:16;2.43;;;2.23;;
3261;SDS011;1643;47.746;9.000;2023-04-03T14:49:45;2.30;;;2.20;;
3261;SDS011;1643;47.746;9.000;2023-04-03T14:52:35;2.13;;;1.93;;
3261;SDS011;1643;47.746;9.000;2023-04-03T14:54:59;2.03;;;1.80;;
3261;SDS011;1643;47.746;9.000;2023-04-03T14:57:26;4.40;;;3.30;;
3261;SDS011;1643;47.746;9.000;2023-04-03T14:59:53;4.37;;;3.97;;
3261;SDS011;1643;47.746;9.000;2023-04-03T15:04:55;3.30;;;2.87;;
3261;SDS011;1643;47.746;9.000;2023-04-03T15:07:22;2.57;;;2.37;;
3261;SDS011;1643;47.746;9.000;2023-04-03T15:09:50;2.40;;;2.30;;
3261;SDS011;1643;47.746;9.000;2023-04-03T15:12:16;2.37;;;2.17;;
3261;SDS011;1643;47.746;9.000;2023-04-03T15:14:42;2.23;;;2.03;;
3261;SDS011;1643;47.746;9.000;2023-04-03T15:17:10;2.60;;;2.40;;
3261;SDS011;1643;47.746;9.000;2023-04-03T15:19:41;3.13;;;2.90;;
3261;SDS011;1643;47.746;9.000;2023-04-03T15:22:11;2.33;;;2.17;;
3261;SDS011;1643;47.746;9.000;2023-04-03T15:24:40;3.17;;;2.90;;
3261;SDS011;1643;47.746;9.000;2023-04-03T15:27:05;2.90;;;2.70;;
3261;SDS011;1643;47.746;9.000;2023-04-03T15:29:31;2.90;;;2.40;;
3261;SDS011;1643;47.746;9.000;2023-04-03T15:31:57;2.93;;;2.13;;
3261;SDS011;1643;47.746;9.000;2023-04-03T15:34:22;2.47;;;2.10;;
3261;SDS011;1643;47.746;9.000;2023-04-03T15:36:49;2.60;;;2.40;;
3261;SDS011;1643;47.746;9.000;2023-04-03T15:39:17;2.83;;;2.47;;
3261;SDS011;1643;47.746;9.000;2023-04-03T15:41:43;2.63;;;2.43;;
3261;SDS011;1643;47.746;9.000;2023-04-03T15:44:10;2.90;;;2.53;;
3261;SDS011;1643;47.746;9.000;2023-04-03T15:46:37;7.03;;;2.73;;
3261;SDS011;1643;47.746;9.000;2023-04-03T15:49:03;2.77;;;2.50;;
3261;SDS011;1643;47.746;9.000;2023-04-03T15:51:30;3.00;;;2.43;;
3261;SDS011;1643;47.746;9.000;2023-04-03T15:53:56;2.50;;;2.30;;
3261;SDS011;1643;47.746;9.000;2023-04-03T15:56:22;5.03;;;3.80;;
3261;SDS011;1643;47.746;9.000;2023-04-03T15:58:47;5.20;;;3.30;;
3261;SDS011;1643;47.746;9.000;2023-04-03T16:01:13;3.80;;;3.40;;
3261;SDS011;1643;47.746;9.000;2023-04-03T16:03:40;4.80;;;3.60;;
3261;SDS011;1643;47.746;9.000;2023-04-03T16:06:13;6.00;;;5.03;;
3261;SDS011;1643;47.746;9.000;2023-04-03T16:08:40;4.07;;;3.60;;
3261;SDS011;1643;47.746;9.000;2023-04-03T16:11:06;4.40;;;3.27;;
3261;SDS011;1643;47.746;9.000;2023-04-03T16:13:32;4.10;;;3.57;;
3261;SDS011;1643;47.746;9.000;2023-04-03T16:15:58;3.50;;;3.20;;
3261;SDS011;1643;47.746;9.000;2023-04-03T16:18:25;4.40;;;3.43;;
3261;SDS011;1643;47.746;9.000;2023-04-03T16:20:51;4.60;;;4.20;;
3261;SDS011;1643;47.746;9.000;2023-04-03T16:23:16;3.50;;;2.93;;
3261;SDS011;1643;47.746;9.000;2023-04-03T16:25:42;4.67;;;4.20;;
3261;SDS011;1643;47.746;9.000;2023-04-03T16:28:11;6.23;;;3.90;;
3261;SDS011;1643;47.746;9.000;2023-04-03T16:30:41;4.17;;;3.77;;
3261;SDS011;1643;47.746;9.000;2023-04-03T16:33:08;3.43;;;3.13;;
3261;SDS011;1643;47.746;9.000;2023-04-03T16:35:35;4.80;;;3.17;;
3261;SDS011;1643;47.746;9.000;2023-04-03T16:38:00;3.30;;;3.00;;
3261;SDS011;1643;47.746;9.000;2023-04-03T16:40:26;4.03;;;3.43;;
3261;SDS011;1643;47.746;9.000;2023-04-03T16:42:52;2.70;;;2.50;;
3261;SDS011;1643;47.746;9.000;2023-04-03T16:45:17;3.60;;;3.30;;
3261;SDS011;1643;47.746;9.000;2023-04-03T16:47:43;3.50;;;3.20;;
3261;SDS011;1643;47.746;9.000;2023-04-03T16:50:09;3.20;;;3.00;;
3261;SDS011;1643;47.746;9.000;2023-04-03T16:52:35;3.43;;;3.13;;
3261;SDS011;1643;47.746;9.000;2023-04-03T16:55:01;4.10;;;3.13;;
3261;SDS011;1643;47.746;9.000;2023-04-03T16:57:27;2.70;;;2.10;;
3261;SDS011;1643;47.746;9.000;2023-04-03T16:59:52;3.67;;;2.90;;
3261;SDS011;1643;47.746;9.000;2023-04-03T17:02:22;2.80;;;2.33;;
3261;SDS011;1643;47.746;9.000;2023-04-03T17:04:54;3.43;;;3.13;;
3261;SDS011;1643;47.746;9.000;2023-04-03T17:07:20;2.83;;;2.63;;
3261;SDS011;1643;47.746;9.000;2023-04-03T17:09:47;3.57;;;2.70;;
3261;SDS011;1643;47.746;9.000;2023-04-03T17:12:13;2.77;;;2.57;;
3261;SDS011;1643;47.746;9.000;2023-04-03T17:14:39;7.30;;;4.30;;
3261;SDS011;1643;47.746;9.000;2023-04-03T17:17:05;4.03;;;3.47;;
3261;SDS011;1643;47.746;9.000;2023-04-03T17:19:32;4.53;;;3.17;;
3261;SDS011;1643;47.746;9.000;2023-04-03T17:21:58;3.63;;;2.93;;
3261;SDS011;1643;47.746;9.000;2023-04-03T17:24:24;2.50;;;2.30;;
3261;SDS011;1643;47.746;9.000;2023-04-03T17:26:51;3.43;;;2.30;;
3261;SDS011;1643;47.746;9.000;2023-04-03T17:29:16;2.30;;;2.10;;
3261;SDS011;1643;47.746;9.000;2023-04-03T17:31:42;2.60;;;2.40;;
3261;SDS011;1643;47.746;9.000;2023-04-03T17:34:07;2.23;;;2.03;;
3261;SDS011;1643;47.746;9.000;2023-04-03T17:36:36;2.27;;;1.87;;
3261;SDS011;1643;47.746;9.000;2023-04-03T17:39:02;3.00;;;2.70;;
3261;SDS011;1643;47.746;9.000;2023-04-03T17:41:28;2.23;;;2.07;;
3261;SDS011;1643;47.746;9.000;2023-04-03T17:43:54;3.27;;;2.97;;